Time;durP1;ratioP1;P1;durP2;ratioP2;P2;SDS_P1;SDS_P2;PMS_P1;PMS_P2;Temp;Humidity;BMP_temperature;BMP_pressure;BME280_temperature;BME280_humidity;BME280_pressure;Samples;Min_cycle;Max_cycle;Signal;HPM_P1;HPM_P2
2022/06/14 00:01:17;;;;;;;5.90;1.92;;;14.60;59.20;;;;;;5096895;28;20025;-67
2022/06/14 00:03:44;;;;;;;6.70;2.42;;;14.50;59.60;;;;;;5096919;28;20031;-67
2022/06/14 00:06:13;;;;;;;5.30;1.70;;;14.60;59.40;;;;;;5096682;28;20112;-67
2022/06/14 00:08:39;;;;;;;8.73;2.00;;;14.60;59.10;;;;;;5096757;28;20024;-67
2022/06/14 00:11:09;;;;;;;5.07;2.10;;;14.50;59.20;;;;;;5096751;28;20035;-67
2022/06/14 00:13:35;;;;;;;5.22;2.17;;;14.40;59.90;;;;;;5096798;28;20017;-67
2022/06/14 00:16:01;;;;;;;4.15;2.03;;;14.40;60.40;;;;;;5096644;28;20043;-67
2022/06/14 00:18:27;;;;;;;7.15;2.10;;;14.30;60.20;;;;;;5096629;28;20040;-67
2022/06/14 00:20:52;;;;;;;5.25;2.35;;;14.10;60.90;;;;;;5096504;28;20033;-67
2022/06/14 00:23:19;;;;;;;5.80;2.15;;;14.10;61.10;;;;;;5096632;28;20032;-67
2022/06/14 00:25:51;;;;;;;4.10;1.80;;;14.30;60.60;;;;;;5096465;28;20114;-67
2022/06/14 00:28:17;;;;;;;6.55;2.28;;;14.10;61.00;;;;;;5096443;28;20027;-67
2022/06/14 00:30:45;;;;;;;3.95;2.00;;;14.10;60.80;;;;;;5096389;28;20032;-67
2022/06/14 00:33:11;;;;;;;8.10;2.08;;;14.10;60.60;;;;;;5095190;28;20052;-67
2022/06/14 00:35:36;;;;;;;7.05;2.10;;;14.10;60.60;;;;;;5096302;28;20035;-67
2022/06/14 00:38:03;;;;;;;5.35;2.25;;;14.10;60.20;;;;;;5096420;28;20375;-67
2022/06/14 00:40:33;;;;;;;6.70;2.25;;;14.00;60.10;;;;;;5096121;28;20032;-67
2022/06/14 00:43:03;;;;;;;8.25;2.20;;;13.90;60.70;;;;;;5095123;28;20080;-67
2022/06/14 00:45:29;;;;;;;8.95;2.30;;;13.90;60.90;;;;;;5096180;28;20012;-67
2022/06/14 00:48:03;;;;;;;5.88;1.90;;;13.80;61.30;;;;;;5096084;28;20032;-67
2022/06/14 00:51:00;;;;;;;6.45;2.08;;;13.90;61.30;;;;;;5096064;28;20036;-67
2022/06/14 00:53:30;;;;;;;4.65;2.15;;;13.80;61.10;;;;;;5095846;28;20021;-67
2022/06/14 00:56:06;;;;;;;6.80;2.10;;;13.80;61.10;;;;;;5095945;28;20043;-67
2022/06/14 00:58:40;;;;;;;6.05;2.20;;;13.90;60.90;;;;;;5094875;28;20025;-67
2022/06/14 01:01:11;;;;;;;5.60;2.05;;;13.70;61.30;;;;;;5095787;28;20025;-67
2022/06/14 01:03:43;;;;;;;6.70;2.10;;;13.60;61.60;;;;;;5095850;28;20013;-67
2022/06/14 01:06:17;;;;;;;4.97;2.30;;;13.70;61.60;;;;;;5095592;28;20048;-67
2022/06/14 01:08:56;;;;;;;6.32;2.22;;;13.60;62.40;;;;;;5095847;28;20063;-67
2022/06/14 01:11:50;;;;;;;4.45;1.90;;;13.60;61.60;;;;;;5094963;28;20035;-67
2022/06/14 01:14:24;;;;;;;8.70;1.88;;;13.60;61.70;;;;;;5095687;28;20083;-67
2022/06/14 01:16:51;;;;;;;6.22;2.22;;;13.60;62.20;;;;;;5095608;28;20025;-67
2022/06/14 01:19:22;;;;;;;9.07;2.40;;;13.50;62.10;;;;;;5095481;28;20088;-67
2022/06/14 01:22:03;;;;;;;9.15;2.92;;;13.50;62.40;;;;;;5095431;28;20043;-66
2022/06/14 01:24:30;;;;;;;6.13;2.10;;;13.40;62.40;;;;;;5094385;28;20055;-67
2022/06/14 01:26:57;;;;;;;4.97;2.20;;;13.50;62.20;;;;;;5077735;28;20016;-67
2022/06/14 01:29:24;;;;;;;8.93;2.33;;;13.50;62.00;;;;;;5095213;28;20029;-67
2022/06/14 01:31:53;;;;;;;6.43;2.00;;;13.40;62.30;;;;;;5094366;28;20055;-67
2022/06/14 01:34:20;;;;;;;5.53;2.50;;;13.40;62.00;;;;;;5095205;28;20013;-67
2022/06/14 01:36:46;;;;;;;6.80;2.65;;;13.30;62.40;;;;;;5095174;28;20021;-67
2022/06/14 01:39:18;;;;;;;6.25;2.50;;;13.30;62.90;;;;;;5095159;28;20029;-67
2022/06/14 01:42:21;;;;;;;7.38;2.22;;;13.20;63.00;;;;;;5095073;28;20021;-67
2022/06/14 01:44:59;;;;;;;4.13;2.35;;;13.00;63.60;;;;;;5094901;28;20020;-67
2022/06/14 01:47:38;;;;;;;6.05;2.33;;;13.00;63.90;;;;;;5094969;28;20032;-67
2022/06/14 01:53:21;;;;;;;5.25;2.35;;;13.00;63.40;;;;;;5095127;28;20075;-67
2022/06/14 01:56:01;;;;;;;8.02;2.50;;;13.10;63.40;;;;;;5094824;28;20033;-67
2022/06/14 01:58:35;;;;;;;6.20;2.33;;;13.00;63.90;;;;;;5094935;28;20033;-67
2022/06/14 02:01:10;;;;;;;7.63;2.97;;;12.90;64.10;;;;;;5094668;28;20048;-67
2022/06/14 02:06:34;;;;;;;7.80;2.60;;;13.00;64.10;;;;;;5094479;28;20078;-67
2022/06/14 02:09:22;;;;;;;5.68;2.22;;;13.00;64.30;;;;;;5093485;28;20054;-67
2022/06/14 02:11:48;;;;;;;8.38;2.65;;;12.80;64.30;;;;;;5094479;28;20063;-67
2022/06/14 02:14:34;;;;;;;5.85;2.58;;;12.90;64.50;;;;;;5094387;28;20032;-67
2022/06/14 02:17:41;;;;;;;6.15;2.30;;;13.00;63.90;;;;;;5094394;28;20024;-67
2022/06/14 02:20:13;;;;;;;5.45;2.33;;;12.90;63.90;;;;;;5032504;28;20065;-67
2022/06/14 02:23:01;;;;;;;7.70;2.77;;;12.70;64.30;;;;;;5085707;28;20041;-67
2022/06/14 02:25:35;;;;;;;8.25;2.30;;;12.60;64.70;;;;;;5094307;28;20247;-67
2022/06/14 02:28:17;;;;;;;5.65;2.00;;;12.60;64.90;;;;;;5094232;28;20021;-67
2022/06/14 02:31:09;;;;;;;6.60;2.22;;;12.60;65.50;;;;;;5094139;28;20020;-67
2022/06/14 02:33:39;;;;;;;5.03;2.13;;;12.40;65.70;;;;;;5093563;28;20040;-67
2022/06/14 02:36:05;;;;;;;4.57;2.38;;;12.50;65.70;;;;;;5093997;28;20063;-67
2022/06/14 02:38:47;;;;;;;6.38;2.45;;;12.50;65.20;;;;;;5093949;28;20028;-67
2022/06/14 02:41:20;;;;;;;8.13;2.60;;;12.40;65.30;;;;;;5093846;28;20029;-67
2022/06/14 02:43:55;;;;;;;6.45;2.28;;;12.60;65.20;;;;;;5093885;28;20016;-67
2022/06/14 02:46:32;;;;;;;6.28;2.40;;;12.50;64.80;;;;;;5091756;28;20025;-67
2022/06/14 02:49:09;;;;;;;6.15;2.22;;;12.40;65.00;;;;;;5093956;28;20017;-66
2022/06/14 02:51:56;;;;;;;3.97;2.25;;;12.40;64.80;;;;;;5092752;28;20360;-67
2022/06/14 02:54:37;;;;;;;8.23;2.70;;;12.50;66.00;;;;;;5093665;28;20025;-67
2022/06/14 02:57:07;;;;;;;5.72;2.47;;;12.50;65.30;;;;;;5093636;28;20025;-67
2022/06/14 02:59:39;;;;;;;5.88;2.30;;;12.30;65.30;;;;;;5093564;28;20021;-67
2022/06/14 03:02:31;;;;;;;4.77;2.67;;;12.10;65.90;;;;;;5093729;28;20017;-67
2022/06/14 03:05:11;;;;;;;7.05;2.88;;;12.30;65.60;;;;;;5093563;28;20021;-67
2022/06/14 03:08:13;;;;;;;5.65;2.42;;;12.20;65.20;;;;;;5093635;28;20029;-67
2022/06/14 03:11:16;;;;;;;6.78;2.42;;;12.10;65.70;;;;;;5090786;28;20048;-67
2022/06/14 03:13:51;;;;;;;5.63;2.70;;;12.10;66.20;;;;;;5093395;28;20040;-67
2022/06/14 03:16:57;;;;;;;6.47;2.42;;;12.10;66.00;;;;;;5093397;28;20038;-67
2022/06/14 03:19:39;;;;;;;8.35;2.50;;;12.10;65.90;;;;;;5079992;28;20036;-67
2022/06/14 03:22:10;;;;;;;4.68;2.58;;;11.90;65.70;;;;;;5093336;28;20031;-67
2022/06/14 03:24:57;;;;;;;9.57;3.10;;;12.00;65.90;;;;;;5093317;28;20021;-67
2022/06/14 03:27:30;;;;;;;9.13;3.40;;;12.10;66.00;;;;;;5093399;28;20024;-67
2022/06/14 03:30:16;;;;;;;7.82;3.08;;;12.00;65.90;;;;;;5093152;28;20025;-67
2022/06/14 03:32:55;;;;;;;8.48;2.85;;;12.10;65.60;;;;;;5093372;28;20025;-67
2022/06/14 03:35:35;;;;;;;5.90;2.67;;;12.30;65.40;;;;;;5093033;28;20025;-67
2022/06/14 03:38:06;;;;;;;5.15;2.60;;;12.10;66.00;;;;;;5093170;28;20032;-67
2022/06/14 03:40:32;;;;;;;6.50;2.80;;;11.90;66.20;;;;;;5093197;28;20031;-67
2022/06/14 03:43:01;;;;;;;6.57;2.67;;;11.80;66.50;;;;;;5093226;28;20021;-67
2022/06/14 03:46:00;;;;;;;9.13;2.90;;;11.90;66.50;;;;;;5093085;28;20023;-67
2022/06/14 03:48:27;;;;;;;7.07;2.60;;;12.10;66.00;;;;;;5061694;28;20040;-67
2022/06/14 03:50:58;;;;;;;4.88;2.40;;;12.10;65.60;;;;;;5093032;28;20048;-67
2022/06/14 03:53:24;;;;;;;6.95;2.50;;;12.10;65.90;;;;;;5092999;28;20039;-67
2022/06/14 03:55:52;;;;;;;7.45;2.75;;;12.00;66.20;;;;;;5091997;28;20048;-67
2022/06/14 03:58:53;;;;;;;7.93;3.45;;;11.90;65.80;;;;;;5091976;28;20021;-67
2022/06/14 04:01:23;;;;;;;5.75;2.92;;;11.90;66.30;;;;;;5082086;28;20072;-67
2022/06/14 04:04:01;;;;;;;8.48;3.33;;;11.80;66.30;;;;;;5092937;28;20025;-67
2022/06/14 04:06:57;;;;;;;5.55;2.80;;;11.60;66.40;;;;;;5092692;28;20104;-67
2022/06/14 04:09:53;;;;;;;8.15;2.97;;;11.50;67.00;;;;;;5092797;28;20080;-67
2022/06/14 04:12:24;;;;;;;6.20;2.72;;;11.60;67.40;;;;;;5092896;28;20050;-67
2022/06/14 04:15:24;;;;;;;9.18;3.10;;;11.50;67.80;;;;;;5091759;28;20042;-67
2022/06/14 04:21:10;;;;;;;8.88;3.22;;;11.50;67.90;;;;;;5092854;28;20106;-67
2022/06/14 04:24:02;;;;;;;9.23;3.20;;;11.50;67.90;;;;;;5092884;28;20028;-67
2022/06/14 04:26:50;;;;;;;7.90;3.05;;;11.60;68.20;;;;;;5092721;28;20026;-67
2022/06/14 04:29:21;;;;;;;7.93;3.10;;;11.60;68.60;;;;;;5092624;28;20084;-67
2022/06/14 04:31:59;;;;;;;9.30;3.15;;;11.70;67.90;;;;;;5092663;28;20489;-66
2022/06/14 04:34:41;;;;;;;8.80;3.50;;;11.70;67.70;;;;;;5092644;28;20403;-66
2022/06/14 04:37:16;;;;;;;7.35;3.20;;;11.70;68.00;;;;;;5092633;28;20021;-67
2022/06/14 04:39:55;;;;;;;6.43;2.90;;;11.80;67.80;;;;;;5092477;28;20076;-67
2022/06/14 04:42:26;;;;;;;9.75;3.67;;;11.90;68.00;;;;;;5092679;28;20013;-67
2022/06/14 04:45:22;;;;;;;7.32;2.97;;;12.00;68.40;;;;;;5092523;28;20055;-67
2022/06/14 04:47:57;;;;;;;9.68;3.20;;;12.00;68.70;;;;;;5094541;28;20036;-67
2022/06/14 04:50:31;;;;;;;7.90;3.60;;;12.00;68.60;;;;;;5096159;28;20031;-67
2022/06/14 04:53:20;;;;;;;6.65;3.50;;;12.10;69.40;;;;;;5094983;28;20111;-67
2022/06/14 04:56:02;;;;;;;9.35;3.40;;;12.20;68.70;;;;;;5095983;28;20028;-67
2022/06/14 04:58:32;;;;;;;11.25;4.32;;;12.20;68.80;;;;;;5095960;28;20021;-67
2022/06/14 05:01:03;;;;;;;10.15;4.25;;;12.30;69.20;;;;;;5095792;28;20028;-67
2022/06/14 05:03:38;;;;;;;9.48;4.22;;;12.30;69.30;;;;;;5095837;28;20021;-68
2022/06/14 05:06:32;;;;;;;9.35;4.80;;;12.30;70.50;;;;;;5095596;28;20045;-67
2022/06/14 05:09:36;;;;;;;8.75;4.57;;;12.30;72.00;;;;;;5090107;28;20040;-67
2022/06/14 05:12:22;;;;;;;10.38;4.45;;;12.30;72.00;;;;;;5085912;28;20032;-67
2022/06/14 05:15:17;;;;;;;10.27;4.93;;;12.30;72.80;;;;;;5095670;28;20085;-67
2022/06/14 05:17:50;;;;;;;12.90;5.78;;;12.40;72.40;;;;;;5067002;28;20063;-67
2022/06/14 05:20:28;;;;;;;12.63;6.13;;;12.60;73.20;;;;;;5095484;28;20025;-67
2022/06/14 05:23:02;;;;;;;10.32;5.78;;;12.70;72.30;;;;;;5095532;28;20047;-67
2022/06/14 05:25:39;;;;;;;11.77;6.05;;;12.80;72.20;;;;;;5095468;28;20028;-67
2022/06/14 05:28:11;;;;;;;12.07;5.40;;;12.90;72.30;;;;;;5095349;28;20025;-67
2022/06/14 05:30:45;;;;;;;13.77;6.28;;;13.00;72.30;;;;;;5095392;28;20021;-67
2022/06/14 05:33:46;;;;;;;15.63;5.20;;;13.10;72.50;;;;;;5095286;28;20024;-67
2022/06/14 05:36:21;;;;;;;10.00;4.95;;;13.10;72.20;;;;;;5095246;28;20024;-67
2022/06/14 05:38:56;;;;;;;11.13;5.05;;;13.30;72.00;;;;;;5095217;28;20021;-67
2022/06/14 05:41:34;;;;;;;16.00;6.07;;;13.40;71.90;;;;;;5095038;28;20028;-67
2022/06/14 05:44:12;;;;;;;12.23;5.38;;;13.40;72.20;;;;;;5095100;28;20020;-67
2022/06/14 05:46:54;;;;;;;10.32;5.30;;;13.50;72.20;;;;;;5094942;28;20047;-67
2022/06/14 05:49:28;;;;;;;10.18;5.10;;;13.50;72.10;;;;;;5095008;28;20029;-66
2022/06/14 05:52:10;;;;;;;10.90;5.03;;;13.60;72.20;;;;;;5094954;28;20028;-67
2022/06/14 05:54:55;;;;;;;13.95;5.35;;;13.70;72.30;;;;;;5093863;28;20444;-67
2022/06/14 05:57:42;;;;;;;16.10;5.47;;;13.70;73.20;;;;;;5094682;28;20124;-67
2022/06/14 06:00:49;;;;;;;14.32;5.07;;;13.70;73.00;;;;;;5094728;28;20059;-67
2022/06/14 06:03:29;;;;;;;11.93;4.57;;;13.80;73.30;;;;;;5064751;28;20025;-67
2022/06/14 06:06:09;;;;;;;13.50;4.90;;;13.80;72.90;;;;;;5094392;28;20074;-67
2022/06/14 06:08:52;;;;;;;10.45;4.78;;;13.90;73.00;;;;;;5094707;28;20048;-67
2022/06/14 06:11:26;;;;;;;11.10;5.03;;;14.00;73.20;;;;;;5094554;28;20494;-67
2022/06/14 06:14:00;;;;;;;14.40;4.65;;;14.10;72.80;;;;;;5094605;28;20020;-67
2022/06/14 06:16:45;;;;;;;12.25;4.63;;;14.20;72.70;;;;;;5094426;28;20025;-67
2022/06/14 06:19:31;;;;;;;11.15;4.63;;;14.30;72.50;;;;;;5094392;28;20021;-67
2022/06/14 06:22:04;;;;;;;11.95;4.63;;;14.40;72.30;;;;;;5094337;28;20032;-67
2022/06/14 06:24:45;;;;;;;11.50;4.38;;;14.50;72.10;;;;;;5094260;28;20463;-66
2022/06/14 06:27:12;;;;;;;13.82;4.60;;;14.50;72.00;;;;;;5094317;28;20084;-67
2022/06/14 06:30:08;;;;;;;10.45;4.28;;;14.60;71.80;;;;;;5094048;28;20021;-67
2022/06/14 06:32:34;;;;;;;8.80;4.05;;;14.70;71.30;;;;;;5088768;28;20043;-67
2022/06/14 06:35:02;;;;;;;9.32;4.22;;;14.80;70.80;;;;;;5094151;28;20407;-67
2022/06/14 06:37:37;;;;;;;12.65;4.30;;;14.90;70.70;;;;;;5093028;28;20016;-67
2022/06/14 06:40:13;;;;;;;6.53;3.58;;;14.90;70.60;;;;;;5092918;28;20054;-67
2022/06/14 06:42:43;;;;;;;9.70;3.40;;;15.00;70.20;;;;;;5093942;28;20050;-67
2022/06/14 06:45:30;;;;;;;9.18;3.03;;;15.10;69.00;;;;;;5093855;28;20020;-67
2022/06/14 06:48:02;;;;;;;10.20;2.88;;;15.20;68.90;;;;;;5093830;28;20021;-67
2022/06/14 06:50:42;;;;;;;7.47;2.45;;;15.20;68.40;;;;;;5093747;28;20032;-67
2022/06/14 06:53:11;;;;;;;9.43;3.30;;;15.30;67.40;;;;;;5093719;28;20028;-67
2022/06/14 06:55:45;;;;;;;7.18;2.97;;;15.30;66.90;;;;;;5093627;28;20028;-67
2022/06/14 06:58:17;;;;;;;7.95;3.13;;;15.40;66.80;;;;;;5093677;28;20058;-67
2022/06/14 07:00:44;;;;;;;9.68;3.67;;;15.50;66.50;;;;;;5093543;28;20028;-67
2022/06/14 07:03:44;;;;;;;8.55;2.97;;;15.50;65.90;;;;;;5093664;28;20040;-67
2022/06/14 07:06:26;;;;;;;8.18;3.35;;;15.60;65.30;;;;;;5093284;28;20033;-67
2022/06/14 07:09:02;;;;;;;7.07;2.60;;;15.60;65.20;;;;;;5092935;28;20024;-67
2022/06/14 07:11:41;;;;;;;7.15;2.20;;;15.70;64.60;;;;;;5093631;28;20045;-67
2022/06/14 07:14:15;;;;;;;6.20;2.03;;;15.80;63.60;;;;;;5093448;28;20057;-67
2022/06/14 07:16:50;;;;;;;8.23;2.50;;;15.80;62.80;;;;;;5093412;28;20021;-67
2022/06/14 07:19:18;;;;;;;5.78;2.25;;;15.90;62.50;;;;;;5092355;28;20040;-67
2022/06/14 07:22:03;;;;;;;6.00;2.17;;;15.90;62.30;;;;;;5093279;28;20055;-67
2022/06/14 07:24:35;;;;;;;4.57;1.50;;;16.00;60.70;;;;;;5093362;28;20021;-67
2022/06/14 07:27:11;;;;;;;;;;;16.00;61.10;;;;;;5093743;28;20027;-67
2022/06/14 07:29:47;;;;;;;6.35;1.70;;;16.10;60.30;;;;;;5093486;28;19904;-67
2022/06/14 07:32:19;;;;;;;8.38;1.80;;;16.10;59.90;;;;;;5093261;28;20530;-67
2022/06/14 07:34:46;;;;;;;5.40;1.52;;;16.10;59.50;;;;;;5092174;28;20030;-67
2022/06/14 07:37:34;;;;;;;8.30;1.60;;;16.20;59.70;;;;;;5093132;28;20025;-67
2022/06/14 07:40:26;;;;;;;3.97;1.70;;;16.30;59.50;;;;;;5092142;28;20020;-67
2022/06/14 07:42:58;;;;;;;5.38;1.33;;;16.30;58.80;;;;;;5092144;28;20028;-67
2022/06/14 07:45:37;;;;;;;3.60;1.43;;;16.40;58.40;;;;;;5093287;28;20016;-67
2022/06/14 07:48:05;;;;;;;6.05;1.60;;;16.40;58.00;;;;;;5093339;28;20021;-67
2022/06/14 07:50:34;;;;;;;2.88;1.35;;;16.50;58.70;;;;;;5093000;28;20112;-67
2022/06/14 07:53:26;;;;;;;3.75;1.20;;;16.60;57.90;;;;;;5092992;28;20032;-67
2022/06/14 07:56:08;;;;;;;4.75;1.50;;;16.60;57.50;;;;;;5093207;28;20074;-67
2022/06/14 07:58:49;;;;;;;3.05;1.10;;;16.70;56.90;;;;;;5093037;28;20033;-67
2022/06/14 08:01:22;;;;;;;5.95;1.60;;;16.80;57.10;;;;;;5092878;28;20044;-67
2022/06/14 08:04:08;;;;;;;4.32;1.20;;;16.90;56.30;;;;;;5093082;28;20016;-67
2022/06/14 08:06:47;;;;;;;4.55;1.38;;;16.90;55.50;;;;;;5092826;28;20493;-67
2022/06/14 08:09:37;;;;;;;4.10;1.50;;;16.90;56.10;;;;;;5092899;28;20028;-67
2022/06/14 08:12:13;;;;;;;2.97;1.27;;;16.90;54.10;;;;;;5092991;28;20025;-67
2022/06/14 08:15:14;;;;;;;3.40;1.13;;;17.00;54.70;;;;;;5092950;28;20028;-67
2022/06/14 08:18:05;;;;;;;3.25;1.20;;;17.00;54.00;;;;;;5079558;28;20037;-67
2022/06/14 08:20:43;;;;;;;5.13;1.30;;;17.00;54.60;;;;;;5094707;28;20051;-67
2022/06/14 08:23:39;;;;;;;4.68;1.77;;;17.10;55.00;;;;;;5096644;28;20021;-67
2022/06/14 08:26:11;;;;;;;4.90;1.60;;;17.20;54.20;;;;;;5096417;28;20027;-67
2022/06/14 08:29:08;;;;;;;5.50;1.83;;;17.20;54.20;;;;;;5096496;28;20028;-66
2022/06/14 08:31:56;;;;;;;5.43;1.88;;;17.30;54.10;;;;;;5070778;28;20131;-67
2022/06/14 08:34:36;;;;;;;5.75;1.90;;;17.30;54.20;;;;;;5096585;28;20113;-66
2022/06/14 08:37:06;;;;;;;4.65;1.80;;;17.40;54.10;;;;;;5095387;28;20021;-67
2022/06/14 08:39:37;;;;;;;7.50;1.85;;;17.30;53.60;;;;;;5096343;28;20028;-67
2022/06/14 08:42:32;;;;;;;4.93;1.77;;;17.40;54.30;;;;;;5096295;28;20051;-66
2022/06/14 08:45:06;;;;;;;7.00;1.90;;;17.40;54.00;;;;;;5096233;28;20025;-66
2022/06/14 08:47:37;;;;;;;5.75;2.10;;;17.50;55.90;;;;;;5096153;28;20028;-66
2022/06/14 08:50:40;;;;;;;5.35;2.13;;;17.70;56.30;;;;;;5096212;28;20020;-67
2022/06/14 08:53:15;;;;;;;;;;;17.70;53.40;;;;;;5096487;28;20051;-67
2022/06/14 08:55:59;;;;;;;6.45;1.80;;;17.70;54.10;;;;;;5094987;28;19904;-67
2022/06/14 08:58:25;;;;;;;5.78;1.70;;;17.70;54.60;;;;;;5095025;28;20051;-67
2022/06/14 09:01:26;;;;;;;6.25;2.08;;;17.60;54.80;;;;;;5095801;28;20028;-67
2022/06/14 09:04:11;;;;;;;7.20;2.15;;;17.70;54.40;;;;;;5095866;28;20083;-67
2022/06/14 09:06:48;;;;;;;8.73;2.45;;;17.60;54.40;;;;;;5095626;28;20045;-67
2022/06/14 09:09:39;;;;;;;7.22;2.30;;;17.70;54.30;;;;;;5095763;28;20032;-67
2022/06/14 09:12:44;;;;;;;6.63;1.95;;;17.80;55.00;;;;;;5095711;28;20024;-67
2022/06/14 09:15:57;;;;;;;5.57;2.10;;;17.80;54.40;;;;;;5095608;28;20032;-67
2022/06/14 09:18:37;;;;;;;8.52;2.00;;;17.80;54.00;;;;;;5049427;28;20033;-67
2022/06/14 09:21:12;;;;;;;5.85;2.30;;;17.80;53.80;;;;;;5095442;28;20024;-67
2022/06/14 09:24:09;;;;;;;8.75;2.22;;;17.90;54.30;;;;;;5095603;28;20128;-67
2022/06/14 09:26:50;;;;;;;6.75;2.03;;;18.00;54.90;;;;;;5095567;28;20116;-67
2022/06/14 09:29:38;;;;;;;6.90;1.70;;;18.10;55.20;;;;;;5095305;28;20035;-67
2022/06/14 09:35:28;;;;;;;6.40;1.90;;;18.50;53.50;;;;;;5095580;28;20040;-67
2022/06/14 09:38:06;;;;;;;7.82;1.90;;;18.40;51.60;;;;;;5095215;28;20033;-67
2022/06/14 09:40:49;;;;;;;5.70;1.85;;;18.30;52.30;;;;;;5095066;28;20029;-67
2022/06/14 09:43:49;;;;;;;7.78;2.08;;;18.40;53.30;;;;;;5095146;28;20020;-67
2022/06/14 09:46:21;;;;;;;6.75;1.77;;;18.60;52.30;;;;;;5095172;28;20070;-67
2022/06/14 09:49:26;;;;;;;5.13;1.50;;;18.70;53.10;;;;;;5095082;28;20084;-67
2022/06/14 09:52:26;;;;;;;3.92;1.80;;;18.80;53.00;;;;;;5094958;28;20031;-67
2022/06/14 09:55:13;;;;;;;5.43;2.13;;;18.80;51.90;;;;;;5094752;28;20048;-68
2022/06/14 09:57:56;;;;;;;6.28;1.95;;;18.90;52.80;;;;;;5094997;28;20032;-67
2022/06/14 10:00:50;;;;;;;7.82;1.70;;;19.00;51.60;;;;;;5094826;28;20092;-67
2022/06/14 10:03:30;;;;;;;5.90;1.95;;;19.10;52.10;;;;;;5094717;28;20048;-67
2022/06/14 10:06:53;;;;;;;3.72;1.60;;;19.20;51.70;;;;;;5093485;28;20075;-68
2022/06/14 10:09:45;;;;;;;6.03;2.30;;;19.30;49.40;;;;;;5032903;28;20056;-68
2022/06/14 10:12:48;;;;;;;4.28;1.65;;;19.20;50.30;;;;;;5032987;28;20068;-67
2022/06/14 10:15:41;;;;;;;6.30;2.38;;;19.30;49.70;;;;;;5094519;28;20093;-68
2022/06/14 10:18:35;;;;;;;6.03;1.77;;;19.40;51.30;;;;;;5086181;28;20033;-68
2022/06/14 10:21:24;;;;;;;7.32;2.13;;;19.50;51.50;;;;;;5094338;28;20051;-67
2022/06/14 10:23:52;;;;;;;5.82;2.50;;;19.50;50.30;;;;;;5094350;28;20041;-68
2022/06/14 10:29:39;;;;;;;3.97;1.92;;;19.50;48.40;;;;;;5094330;28;20032;-67
2022/06/14 10:32:29;;;;;;;2.60;1.58;;;19.60;50.80;;;;;;5094249;28;20020;-67
2022/06/14 10:35:31;;;;;;;5.47;2.10;;;19.70;49.40;;;;;;5094157;28;20031;-67
2022/06/14 10:38:23;;;;;;;6.85;2.20;;;19.80;47.20;;;;;;5094088;28;20021;-67
2022/06/14 10:40:54;;;;;;;5.40;2.05;;;19.90;48.60;;;;;;5093912;28;20078;-67
2022/06/14 10:43:33;;;;;;;6.72;2.15;;;20.00;49.70;;;;;;5092211;28;20032;-68
2022/06/14 10:46:18;;;;;;;4.55;1.83;;;20.20;49.00;;;;;;5094046;28;20032;-68
2022/06/14 10:49:23;;;;;;;9.02;1.92;;;20.20;49.00;;;;;;5094013;28;20013;-68
2022/06/14 10:52:09;;;;;;;4.57;1.85;;;20.40;50.10;;;;;;5093848;28;20059;-67
2022/06/14 10:54:59;;;;;;;3.50;1.80;;;20.50;49.10;;;;;;5093918;28;20043;-67
2022/06/14 10:57:24;;;;;;;6.20;1.80;;;20.60;49.20;;;;;;5093677;28;20028;-67
2022/06/14 11:00:15;;;;;;;4.47;1.67;;;20.60;48.60;;;;;;5093561;28;20039;-67
2022/06/14 11:02:44;;;;;;;5.28;1.70;;;20.70;47.50;;;;;;5093614;28;20026;-68
2022/06/14 11:05:27;;;;;;;5.55;1.83;;;20.70;47.80;;;;;;5093524;28;20028;-67
2022/06/14 11:08:00;;;;;;;8.50;1.70;;;20.50;46.30;;;;;;5093508;28;20105;-67
2022/06/14 11:10:50;;;;;;;4.20;1.70;;;20.50;48.40;;;;;;5093534;28;20021;-67
2022/06/14 11:13:33;;;;;;;6.85;2.00;;;20.60;49.50;;;;;;5093614;28;20048;-67
2022/06/14 11:16:19;;;;;;;7.40;1.90;;;20.80;48.70;;;;;;5092419;28;20028;-67
2022/06/14 11:19:06;;;;;;;5.32;1.92;;;20.80;49.10;;;;;;5093204;28;20035;-67
2022/06/14 11:21:46;;;;;;;5.47;1.70;;;21.00;48.60;;;;;;5093320;28;20082;-67
2022/06/14 11:24:27;;;;;;;8.15;2.03;;;21.00;46.90;;;;;;5093350;28;20047;-67
2022/06/14 11:27:18;;;;;;;5.22;1.65;;;21.00;44.80;;;;;;5093455;28;20016;-67
2022/06/14 11:29:56;;;;;;;5.53;1.85;;;20.90;45.70;;;;;;5082282;28;20037;-67
2022/06/14 11:32:42;;;;;;;2.80;1.45;;;21.10;45.90;;;;;;5092196;28;20024;-67
2022/06/14 11:35:55;;;;;;;8.02;1.83;;;21.20;45.40;;;;;;5093211;28;20028;-67
2022/06/14 11:38:45;;;;;;;4.03;1.48;;;21.30;45.20;;;;;;5093153;28;20025;-67
2022/06/14 11:41:14;;;;;;;8.15;1.75;;;21.30;44.30;;;;;;5093081;28;20089;-67
2022/06/14 11:44:21;;;;;;;4.80;1.63;;;21.40;46.50;;;;;;5093235;28;20076;-67
2022/06/14 11:47:29;;;;;;;5.55;1.50;;;21.50;45.50;;;;;;5059237;28;20036;-67
2022/06/14 11:50:17;;;;;;;6.57;1.45;;;21.50;45.90;;;;;;5031430;28;20030;-67
2022/06/14 11:52:57;;;;;;;6.07;1.60;;;21.70;45.70;;;;;;5089455;28;20422;-68
2022/06/14 11:55:23;;;;;;;4.32;1.42;;;21.80;44.40;;;;;;5095008;28;20028;-67
2022/06/14 11:57:52;;;;;;;3.92;1.40;;;21.90;44.80;;;;;;5096076;28;20024;-68
2022/06/14 12:00:42;;;;;;;3.22;1.40;;;22.00;43.40;;;;;;5097003;28;20040;-68
2022/06/14 12:03:51;;;;;;;3.13;1.33;;;22.00;43.70;;;;;;5096101;28;20016;-67
2022/06/14 12:06:53;;;;;;;4.35;1.30;;;22.10;42.80;;;;;;5096869;28;20036;-67
2022/06/14 12:09:56;;;;;;;6.75;1.60;;;21.80;42.20;;;;;;5097043;28;20377;-68
2022/06/14 12:12:21;;;;;;;3.67;1.45;;;21.70;41.50;;;;;;5096900;28;20020;-69
2022/06/14 12:14:53;;;;;;;5.30;1.40;;;21.50;43.80;;;;;;5096830;28;20027;-68
2022/06/14 12:17:29;;;;;;;4.27;1.47;;;21.70;45.00;;;;;;5096807;28;20072;-68
2022/06/14 12:20:01;;;;;;;5.50;1.50;;;21.80;44.00;;;;;;5096680;28;20071;-68
2022/06/14 12:22:53;;;;;;;5.13;2.35;;;22.00;43.20;;;;;;5096634;28;20055;-67
2022/06/14 12:28:14;;;;;;;5.03;1.48;;;21.80;42.20;;;;;;5096519;28;20027;-67
2022/06/14 12:30:41;;;;;;;4.22;1.73;;;21.80;43.60;;;;;;5096485;28;20028;-67
2022/06/14 12:33:30;;;;;;;4.80;1.67;;;21.80;43.00;;;;;;5096410;28;20024;-67
2022/06/14 12:36:14;;;;;;;4.55;1.45;;;22.00;44.80;;;;;;5096422;28;20024;-67
2022/06/14 12:38:43;;;;;;;3.47;1.48;;;22.20;46.60;;;;;;5096349;28;20092;-67
2022/06/14 12:41:24;;;;;;;4.15;1.70;;;22.40;42.70;;;;;;5096175;28;20032;-67
2022/06/14 12:44:28;;;;;;;7.00;1.60;;;22.30;42.80;;;;;;5096265;28;20024;-67
2022/06/14 12:46:58;;;;;;;7.50;1.67;;;22.10;44.70;;;;;;5034375;28;20041;-68
2022/06/14 12:49:40;;;;;;;7.20;1.80;;;21.90;42.30;;;;;;5034472;28;20114;-68
2022/06/14 12:52:30;;;;;;;5.32;1.67;;;21.90;44.70;;;;;;5071801;28;20033;-67
2022/06/14 12:54:58;;;;;;;5.32;1.27;;;22.20;44.60;;;;;;5096064;28;20376;-67
2022/06/14 12:57:44;;;;;;;3.58;1.40;;;22.40;43.90;;;;;;5095980;28;20074;-67
2022/06/14 13:00:42;;;;;;;5.53;1.60;;;22.50;43.10;;;;;;5096036;28;20032;-67
2022/06/14 13:03:38;;;;;;;6.35;1.70;;;22.70;43.10;;;;;;5095941;28;20032;-67
2022/06/14 13:06:25;;;;;;;3.92;1.63;;;22.90;42.50;;;;;;5095008;28;20049;-67
2022/06/14 13:08:58;;;;;;;4.47;1.70;;;22.90;40.50;;;;;;5095944;28;20025;-68
2022/06/14 13:11:42;;;;;;;8.00;2.20;;;22.60;42.60;;;;;;5095777;28;20025;-67
2022/06/14 13:14:18;;;;;;;5.90;1.70;;;22.50;42.60;;;;;;5095760;28;20059;-67
2022/06/14 13:17:02;;;;;;;4.18;1.85;;;22.60;43.40;;;;;;5095661;28;20051;-67
2022/06/14 13:19:40;;;;;;;3.53;1.35;;;22.50;41.70;;;;;;5095743;28;20055;-67
2022/06/14 13:22:23;;;;;;;4.28;1.50;;;22.60;43.60;;;;;;5095501;28;20024;-67
2022/06/14 13:25:40;;;;;;;5.50;1.80;;;22.90;43.30;;;;;;5095592;28;20024;-67
2022/06/14 13:28:45;;;;;;;3.30;1.23;;;23.20;42.60;;;;;;5033719;28;20029;-67
2022/06/14 13:31:35;;;;;;;4.90;1.73;;;23.40;42.30;;;;;;5030103;28;20073;-68
2022/06/14 13:34:34;;;;;;;3.92;1.50;;;23.40;42.50;;;;;;5094382;28;20055;-67
2022/06/14 13:37:05;;;;;;;4.00;1.50;;;23.40;42.20;;;;;;5095415;28;20028;-67
2022/06/14 13:39:37;;;;;;;4.53;1.75;;;23.50;41.40;;;;;;5095212;28;20059;-67
2022/06/14 13:42:14;;;;;;;3.83;1.60;;;23.40;40.60;;;;;;5095271;28;20032;-67
2022/06/14 13:44:58;;;;;;;4.38;1.70;;;23.20;41.00;;;;;;5095148;28;20060;-67
2022/06/14 13:47:34;;;;;;;3.97;1.73;;;23.20;40.80;;;;;;5095123;28;20021;-67
2022/06/14 13:50:17;;;;;;;4.85;1.77;;;23.10;41.00;;;;;;5095091;28;20032;-67
2022/06/14 13:52:55;;;;;;;5.78;1.90;;;22.90;39.30;;;;;;5094972;28;20028;-67
2022/06/14 13:55:28;;;;;;;10.07;1.73;;;22.80;40.20;;;;;;5094928;28;20035;-67
2022/06/14 13:58:09;;;;;;;2.75;1.60;;;22.60;39.50;;;;;;5094885;28;20156;-67
2022/06/14 14:01:05;;;;;;;5.95;1.60;;;22.60;39.90;;;;;;5094765;28;20027;-67
2022/06/14 14:04:02;;;;;;;7.60;1.80;;;22.70;41.40;;;;;;5094753;28;20035;-67
2022/06/14 14:07:21;;;;;;;4.28;1.58;;;23.20;41.30;;;;;;5094553;28;20045;-68
2022/06/14 14:10:29;;;;;;;3.53;1.50;;;23.40;40.50;;;;;;5069915;28;20033;-67
2022/06/14 14:13:04;;;;;;;4.13;1.55;;;23.20;40.30;;;;;;5081507;28;20032;-67
2022/06/14 14:15:46;;;;;;;4.35;1.60;;;23.00;39.40;;;;;;5094557;28;20132;-67